Aviation Digital Data Service (ADDS)

Output produced by METARs form (0817 UTC 25 April 2014)
found at http://www.aviationweather.gov/adds/metars/
 
METAR text: EPBY 250800Z 05006KT 010V090 CAVOK 14/05 Q1019
Conditions at: EPBY (BYDGOSZDZ , PL) observed 0800 UTC 25 April 2014
Temperature: 14.0°C (57°F)
Dewpoint: 5.0°C (41°F) [RH = 55%]
Pressure (altimeter): 30.09 inches Hg (1019.0 mb)
Winds: from the NE (50 degrees) at 7 MPH (6 knots; 3.1 m/s)
Visibility: 6 or more miles (10+ km)
Ceiling: ceiling and visibility are OK
Clouds: unknown
Weather: no significant weather observed at this time

Forecast for: EPBY (BYDGOSZDZ , PL)
Text: TAF EPBY 250530Z 2506/2515 08004KT CAVOK
Forecast period: 0600 to 1500 UTC 25 April 2014
Forecast type: FROM: standard forecast or significant change
Winds: from the E (80 degrees) at 5 MPH (4 knots; 2.1 m/s)
Visibility: 6 or more miles (10+ km)
Clouds: not forecast
Weather: NSW  (no significant weather)